Главная страница
METAR-TAF:

METAR-TAF

Аэропорты :

Шоуду

Пекин, Китай

широта: 39-56N, долгота: 116-17E, высота над уровнем моря: 55 м

Текущие метеонаблюдения

Эта сводка был подготовлена 28 минут назад, в 10:30 UTC
Ветер 10 Узел от южный-юго-западный
Температура 11°C
Влажность 11%
Давление 1022 hPa
Видимость 10 км и более
Нет облачности ниже 1500 м, и нет кучево-дождевой облачности

METAR: ZBAA 231030Z 21005MPS CAVOK 11/M18 Q1022 NOSIG

Время: 18:58 (10:58 UTC)

Прогноз

Эта сводка был подготовлена 7 часа и 38 минут назад, в 03:20 UTC
Прогноз действительный с 23-го 06 UTC до 24-го 06 UTC
Ветер 8 Узел от юго-западный
Видимость 10 км и более
Нет облачности ниже 1500 м, и нет кучево-дождевой облачности

TAF: ZBAA 230320Z 2306/2406 23004MPS CAVOK TX13/2307Z TN02/2321Z

Метеонаблюдения и прогнозы для более 4000 аэропортов (сводки METAR и TAF).

Имеющиеся станции представлены на карте желтыми и красными точками.

Чтобы увидеть название станции, наведите на нее мышь.

Затем щелкните, чтобы увидеть метеонаблюдения и метеопрогнозы.

Управление картой: чтобы увеличить масштаб, щелкните зеленые кнопки с черным крестиком; чтобы уменьшить масштаб, щелкните зеленую кнопку с тире; для просмотра соседних карт щелкайте зеленые стрелки.


METAR-TAF: